createdAt,value
2022-10-04T00:00:28.061Z,12.10
2022-10-04T00:03:06.653Z,12.10
2022-10-04T00:05:33.695Z,12.00
2022-10-04T00:08:25.247Z,12.00
2022-10-04T00:11:02.638Z,12.00
2022-10-04T00:13:30.036Z,11.90
2022-10-04T00:15:57.223Z,11.90
2022-10-04T00:18:38.616Z,11.90
2022-10-04T00:21:06.856Z,11.90
2022-10-04T00:23:36.771Z,11.80
2022-10-04T00:26:13.569Z,11.70
2022-10-04T00:28:46.969Z,11.80
2022-10-04T00:31:17.470Z,11.70
2022-10-04T00:34:03.710Z,11.70
2022-10-04T00:36:39.015Z,11.70
2022-10-04T00:39:08.700Z,11.70
2022-10-04T00:42:21.359Z,11.70
2022-10-04T00:45:17.571Z,11.70
2022-10-04T00:47:47.329Z,11.60
2022-10-04T00:50:18.739Z,11.60
2022-10-04T00:52:50.029Z,11.60
2022-10-04T00:55:25.688Z,11.50
2022-10-04T00:57:59.557Z,11.50
2022-10-04T01:00:27.165Z,11.50
2022-10-04T01:03:01.438Z,11.40
2022-10-04T01:05:42.752Z,11.40
2022-10-04T01:08:31.577Z,11.40
2022-10-04T01:11:02.692Z,11.40
2022-10-04T01:13:41.341Z,11.30
2022-10-04T01:16:19.667Z,11.30
2022-10-04T01:18:47.486Z,11.30
2022-10-04T01:21:20.343Z,11.20
2022-10-04T01:23:57.362Z,11.20
2022-10-04T01:26:30.453Z,11.10
2022-10-04T01:28:59.606Z,11.10
2022-10-04T01:31:27.493Z,11.10
2022-10-04T01:33:55.143Z,11.00
2022-10-04T01:36:22.345Z,11.00
2022-10-04T01:38:49.594Z,11.00
2022-10-04T01:41:22.621Z,11.00
2022-10-04T01:43:52.207Z,11.00
2022-10-04T01:46:23.243Z,11.00
2022-10-04T01:48:50.037Z,10.90
2022-10-04T01:51:21.836Z,10.90
2022-10-04T01:54:09.788Z,10.90
2022-10-04T01:56:58.653Z,10.90
2022-10-04T01:59:30.167Z,10.80
2022-10-04T02:02:04.612Z,10.80
2022-10-04T02:04:34.755Z,10.80
2022-10-04T02:07:02.861Z,10.70
2022-10-04T02:09:33.987Z,10.70
2022-10-04T02:12:01.534Z,10.70
2022-10-04T02:14:34.741Z,10.60
2022-10-04T02:17:10.562Z,10.60
2022-10-04T02:19:40.771Z,10.60
2022-10-04T02:22:09.583Z,10.50
2022-10-04T02:24:39.161Z,10.60
2022-10-04T02:27:06.349Z,10.50
2022-10-04T02:29:33.432Z,10.40
2022-10-04T02:32:19.436Z,10.40
2022-10-04T02:34:46.971Z,10.40
2022-10-04T02:37:15.461Z,10.40
2022-10-04T02:39:53.003Z,10.40
2022-10-04T02:42:40.150Z,10.40
2022-10-04T02:45:28.926Z,10.30
2022-10-04T02:48:01.905Z,10.40
2022-10-04T02:50:31.882Z,10.40
2022-10-04T02:53:10.728Z,10.30
2022-10-04T02:55:37.973Z,10.30
2022-10-04T02:58:09.918Z,10.30
2022-10-04T03:00:47.228Z,10.30
2022-10-04T03:03:29.878Z,10.20
2022-10-04T03:06:08.766Z,10.20
2022-10-04T03:08:44.627Z,10.20
2022-10-04T03:11:12.749Z,10.20
2022-10-04T03:13:41.724Z,10.10
2022-10-04T03:16:08.845Z,10.20
2022-10-04T03:18:36.354Z,10.10
2022-10-04T03:21:05.771Z,10.10
2022-10-04T03:23:33.659Z,10.10
2022-10-04T03:26:28.565Z,10.10
2022-10-04T03:28:57.157Z,10.10
2022-10-04T03:31:27.846Z,10.10
2022-10-04T03:33:58.135Z,10.10
2022-10-04T03:36:26.493Z,10.00
2022-10-04T03:38:55.304Z,10.00
2022-10-04T03:41:23.819Z,10.00
2022-10-04T03:43:51.424Z,10.00
2022-10-04T03:46:19.608Z,10.00
2022-10-04T03:48:52.079Z,9.90
2022-10-04T03:51:24.347Z,9.90
2022-10-04T03:53:57.542Z,9.90
2022-10-04T03:56:33.703Z,9.90
2022-10-04T03:59:04.087Z,9.90
2022-10-04T04:01:35.465Z,9.90
2022-10-04T04:04:22.158Z,9.80
2022-10-04T04:07:12.377Z,9.90
2022-10-04T04:09:48.522Z,9.80
2022-10-04T04:12:22.519Z,9.80
2022-10-04T04:14:51.897Z,9.80
2022-10-04T04:17:27.888Z,9.80
2022-10-04T04:19:58.362Z,9.80
2022-10-04T04:22:31.425Z,9.70
2022-10-04T04:25:01.285Z,9.70
2022-10-04T04:27:29.999Z,9.70
2022-10-04T04:29:59.447Z,9.70
2022-10-04T04:32:31.160Z,9.70
2022-10-04T04:35:00.643Z,9.60
2022-10-04T04:37:27.438Z,9.60
2022-10-04T04:39:58.020Z,9.60
2022-10-04T04:42:31.992Z,9.60
2022-10-04T04:45:05.328Z,9.60
2022-10-04T04:47:40.800Z,9.60
2022-10-04T04:50:13.112Z,9.60
2022-10-04T04:52:40.625Z,9.50
2022-10-04T04:55:18.638Z,9.50
2022-10-04T04:57:47.299Z,9.50
2022-10-04T05:00:26.244Z,9.50
2022-10-04T05:03:00.661Z,9.50
2022-10-04T05:05:28.608Z,9.40
2022-10-04T05:08:19.503Z,9.50
2022-10-04T05:10:55.549Z,9.40
2022-10-04T05:13:23.172Z,9.40
2022-10-04T05:15:53.218Z,9.40
2022-10-04T05:18:30.689Z,9.40
2022-10-04T05:21:04.948Z,9.30
2022-10-04T05:23:33.579Z,9.30
2022-10-04T05:26:02.478Z,9.30
2022-10-04T05:28:30.188Z,9.30
2022-10-04T05:31:21.450Z,9.30
2022-10-04T05:33:51.330Z,9.20
2022-10-04T05:36:22.074Z,9.20
2022-10-04T05:39:07.543Z,9.20
2022-10-04T05:41:47.303Z,9.20
2022-10-04T05:44:23.848Z,9.20
2022-10-04T05:46:51.168Z,9.20
2022-10-04T05:49:19.725Z,9.20
2022-10-04T05:52:03.393Z,9.10
2022-10-04T05:54:34.180Z,9.10
2022-10-04T05:57:20.489Z,9.10
2022-10-04T06:00:10.790Z,9.10
2022-10-04T06:02:59.464Z,9.10
2022-10-04T06:05:44.275Z,9.10
2022-10-04T06:08:32.426Z,9.10
2022-10-04T06:11:23.387Z,9.00
2022-10-04T06:14:10.894Z,9.00
2022-10-04T06:16:47.630Z,9.00
2022-10-04T06:19:32.195Z,9.00
2022-10-04T06:22:15.719Z,8.90
2022-10-04T06:24:45.350Z,8.90
2022-10-04T06:27:18.567Z,8.90
2022-10-04T06:29:51.944Z,8.90
2022-10-04T06:32:40.430Z,8.90
2022-10-04T06:35:10.574Z,8.90
2022-10-04T06:37:49.549Z,8.80
2022-10-04T06:40:54.731Z,8.80
2022-10-04T06:43:45.610Z,8.90
2022-10-04T06:46:15.157Z,8.90
2022-10-04T06:49:00.272Z,8.90
2022-10-04T06:51:33.080Z,8.90
2022-10-04T06:54:07.474Z,9.00
2022-10-04T06:56:36.927Z,9.00
2022-10-04T06:59:15.463Z,9.00
2022-10-04T07:01:50.733Z,9.00
2022-10-04T07:04:41.173Z,9.10
2022-10-04T07:07:26.923Z,9.20
2022-10-04T07:10:03.973Z,9.20
2022-10-04T07:12:33.006Z,9.20
2022-10-04T07:15:03.198Z,9.20
2022-10-04T07:17:36.174Z,9.30
2022-10-04T07:20:03.767Z,9.30
2022-10-04T07:22:51.619Z,9.40
2022-10-04T07:25:28.204Z,9.40
2022-10-04T07:28:22.850Z,9.50
2022-10-04T07:30:57.222Z,9.50
2022-10-04T07:33:26.291Z,9.50
2022-10-04T07:36:04.826Z,9.60
2022-10-04T07:38:32.961Z,9.60
2022-10-04T07:41:09.670Z,9.70
2022-10-04T07:43:50.206Z,9.70
2022-10-04T07:46:30.260Z,9.80
2022-10-04T07:48:57.351Z,9.80
2022-10-04T07:51:35.030Z,9.90
2022-10-04T07:54:14.099Z,9.90
2022-10-04T07:57:01.141Z,9.90
2022-10-04T07:59:58.788Z,10.10
2022-10-04T08:02:41.546Z,10.10
2022-10-04T08:05:23.327Z,10.10
2022-10-04T08:08:29.879Z,10.10
2022-10-04T08:11:15.022Z,10.20
2022-10-04T08:13:52.818Z,10.20
2022-10-04T08:16:48.949Z,10.30
2022-10-04T08:19:36.073Z,10.40
2022-10-04T08:22:14.818Z,10.40
2022-10-04T08:25:03.515Z,10.50
2022-10-04T08:27:39.979Z,10.60
2022-10-04T08:30:16.264Z,10.70
2022-10-04T08:33:06.634Z,11.10
2022-10-04T08:35:38.319Z,11.40
2022-10-04T08:38:11.212Z,11.50
2022-10-04T08:40:50.332Z,11.50
2022-10-04T08:43:34.234Z,11.40
2022-10-04T08:46:28.018Z,11.40
2022-10-04T08:49:22.505Z,11.50
2022-10-04T08:52:04.597Z,11.50
2022-10-04T08:55:05.886Z,11.50
2022-10-04T08:57:50.461Z,11.50
2022-10-04T09:00:35.627Z,11.50
2022-10-04T09:03:39.618Z,11.50
2022-10-04T09:06:32.669Z,11.60
2022-10-04T09:08:59.366Z,11.60
2022-10-04T09:11:42.007Z,11.60
2022-10-04T09:14:34.928Z,11.70
2022-10-04T09:17:22.533Z,11.70
2022-10-04T09:20:09.089Z,11.80
2022-10-04T09:22:43.736Z,11.80
2022-10-04T09:25:10.538Z,11.90
2022-10-04T09:27:58.034Z,11.90
2022-10-04T09:30:47.961Z,12.00
2022-10-04T09:33:24.111Z,12.00
2022-10-04T09:36:07.206Z,12.20
2022-10-04T09:38:41.812Z,12.20
2022-10-04T09:41:27.519Z,12.40
2022-10-04T09:44:10.787Z,12.50
2022-10-04T09:47:05.199Z,12.60
2022-10-04T09:50:02.687Z,12.70
2022-10-04T09:53:11.692Z,12.80
2022-10-04T09:56:26.930Z,12.80
2022-10-04T09:59:22.858Z,12.90
2022-10-04T10:02:28.803Z,13.00
2022-10-04T10:05:24.805Z,13.20
2022-10-04T10:08:00.868Z,13.30
2022-10-04T10:11:15.916Z,13.40
2022-10-04T10:14:10.348Z,13.50
2022-10-04T10:16:59.762Z,13.60
2022-10-04T10:19:38.739Z,13.70
2022-10-04T10:22:09.184Z,13.80
2022-10-04T10:25:07.050Z,14.00
2022-10-04T10:27:55.176Z,14.00
2022-10-04T10:30:31.296Z,14.10
2022-10-04T10:33:22.846Z,14.10
2022-10-04T10:36:13.890Z,14.10
2022-10-04T10:38:55.150Z,14.10
2022-10-04T10:41:32.488Z,14.20
2022-10-04T10:44:23.537Z,14.40
2022-10-04T10:47:05.464Z,14.40
2022-10-04T10:49:44.563Z,14.50
2022-10-04T10:52:49.210Z,14.60
2022-10-04T10:55:58.287Z,14.60
2022-10-04T10:58:27.838Z,14.70
2022-10-04T11:01:28.758Z,14.70
2022-10-04T11:04:12.497Z,14.80
2022-10-04T11:07:32.596Z,14.80
2022-10-04T11:10:11.444Z,14.80
2022-10-04T11:12:56.795Z,14.90
2022-10-04T11:15:39.961Z,15.10
2022-10-04T11:18:44.152Z,15.10
2022-10-04T11:21:35.244Z,15.10
2022-10-04T11:24:34.725Z,15.20
2022-10-04T11:27:01.454Z,15.20
2022-10-04T11:29:31.318Z,15.40
2022-10-04T11:32:01.081Z,15.40
2022-10-04T11:35:21.604Z,15.50
2022-10-04T11:37:53.897Z,15.50
2022-10-04T11:40:27.031Z,15.60
2022-10-04T11:43:25.027Z,15.70
2022-10-04T11:46:09.845Z,15.70
2022-10-04T11:49:14.983Z,15.80
2022-10-04T11:52:09.732Z,15.90
2022-10-04T11:55:13.507Z,16.00
2022-10-04T11:58:11.123Z,16.10
2022-10-04T12:01:11.189Z,16.30
2022-10-04T12:03:57.636Z,16.40
2022-10-04T12:06:44.668Z,16.50
2022-10-04T12:09:29.797Z,16.70
2022-10-04T12:12:33.415Z,16.80
2022-10-04T12:15:25.030Z,16.80
2022-10-04T12:18:05.286Z,16.90
2022-10-04T12:20:44.515Z,17.00
2022-10-04T12:23:30.280Z,17.10
2022-10-04T12:26:21.486Z,17.30
2022-10-04T12:29:00.956Z,17.40
2022-10-04T12:31:35.461Z,17.50
2022-10-04T12:34:14.893Z,17.70
2022-10-04T12:36:55.483Z,17.70
2022-10-04T12:39:38.551Z,17.90
2022-10-04T12:42:24.337Z,18.00
2022-10-04T12:45:16.313Z,18.10
2022-10-04T12:47:55.413Z,18.20
2022-10-04T12:50:28.298Z,18.40
2022-10-04T12:53:06.733Z,18.50
2022-10-04T12:55:48.804Z,18.60
2022-10-04T12:58:25.981Z,18.90
2022-10-04T13:00:53.646Z,18.90
2022-10-04T13:03:55.372Z,19.10
2022-10-04T13:06:43.531Z,19.20
2022-10-04T13:09:25.606Z,19.30
2022-10-04T13:12:18.118Z,19.50
2022-10-04T13:14:53.714Z,19.70
2022-10-04T13:17:49.618Z,19.90
2022-10-04T13:20:24.794Z,19.90
2022-10-04T13:23:20.884Z,20.00
2022-10-04T13:26:05.156Z,20.00
2022-10-04T13:29:03.274Z,20.20
2022-10-04T13:31:34.967Z,20.40
2022-10-04T13:34:23.127Z,20.50
2022-10-04T13:37:21.958Z,20.50
2022-10-04T13:39:57.806Z,20.50
2022-10-04T13:42:44.241Z,20.60
2022-10-04T13:45:34.827Z,20.60
2022-10-04T13:48:29.543Z,20.50
2022-10-04T13:51:05.389Z,20.70
2022-10-04T13:53:56.874Z,20.90
2022-10-04T13:56:41.980Z,20.90
2022-10-04T13:59:34.539Z,21.10
2022-10-04T14:02:27.442Z,21.30
2022-10-04T14:05:16.719Z,21.30
2022-10-04T14:08:11.577Z,21.40
2022-10-04T14:11:02.740Z,21.60
2022-10-04T14:13:33.637Z,21.70
2022-10-04T14:16:33.588Z,21.80
2022-10-04T14:19:27.075Z,21.90
2022-10-04T14:22:09.127Z,22.00
2022-10-04T14:24:36.802Z,22.10
2022-10-04T14:27:03.579Z,22.00
2022-10-04T14:29:46.568Z,22.10
2022-10-04T14:32:52.156Z,22.10
2022-10-04T14:35:24.441Z,21.90
2022-10-04T14:38:08.347Z,22.00
2022-10-04T14:40:44.498Z,22.00
2022-10-04T14:43:29.895Z,22.10
2022-10-04T14:46:15.500Z,22.10
2022-10-04T14:49:08.067Z,22.20
2022-10-04T14:52:08.427Z,22.40
2022-10-04T14:54:53.167Z,22.50
2022-10-04T14:58:09.268Z,22.60
2022-10-04T15:00:48.531Z,22.60
2022-10-04T15:03:53.119Z,22.40
2022-10-04T15:06:23.859Z,22.40
2022-10-04T15:09:02.935Z,22.10
2022-10-04T15:11:41.307Z,22.00
2022-10-04T15:14:27.644Z,21.80
2022-10-04T15:16:58.528Z,21.90
2022-10-04T15:19:37.634Z,21.90
2022-10-04T15:22:11.404Z,21.90
2022-10-04T15:24:49.422Z,21.90
2022-10-04T15:27:34.431Z,22.00
2022-10-04T15:30:19.890Z,22.10
2022-10-04T15:32:55.965Z,22.10
2022-10-04T15:35:31.800Z,22.00
2022-10-04T15:38:05.611Z,21.90
2022-10-04T15:40:34.238Z,21.80
2022-10-04T15:43:18.785Z,21.80
2022-10-04T15:46:03.475Z,21.80
2022-10-04T15:48:48.652Z,21.90
2022-10-04T15:51:49.437Z,21.80
2022-10-04T15:54:41.200Z,21.80
2022-10-04T15:57:35.908Z,21.80
2022-10-04T16:00:14.031Z,21.80
2022-10-04T16:02:55.933Z,21.60
2022-10-04T16:05:32.728Z,21.50
2022-10-04T16:08:05.650Z,21.40
2022-10-04T16:10:38.656Z,21.50
2022-10-04T16:13:17.433Z,21.40
2022-10-04T16:15:51.201Z,21.20
2022-10-04T16:18:36.983Z,21.10
2022-10-04T16:21:06.932Z,21.20
2022-10-04T16:23:40.108Z,21.20
2022-10-04T16:26:11.443Z,21.20
2022-10-04T16:28:44.013Z,21.20
2022-10-04T16:31:23.099Z,21.10
2022-10-04T16:34:01.152Z,21.00
2022-10-04T16:36:44.733Z,21.10
2022-10-04T16:39:30.914Z,21.00
2022-10-04T16:42:06.292Z,20.90
2022-10-04T16:44:50.927Z,21.00
2022-10-04T16:47:26.877Z,20.90
2022-10-04T16:49:55.126Z,20.90
2022-10-04T16:52:28.206Z,20.90
2022-10-04T16:54:58.013Z,20.90
2022-10-04T16:57:27.562Z,20.90
2022-10-04T16:59:55.793Z,20.80
2022-10-04T17:02:28.539Z,20.70
2022-10-04T17:05:17.149Z,20.70
2022-10-04T17:07:59.853Z,20.60
2022-10-04T17:10:34.663Z,20.70
2022-10-04T17:13:14.852Z,20.50
2022-10-04T17:15:42.191Z,20.50
2022-10-04T17:18:19.863Z,20.50
2022-10-04T17:21:02.148Z,20.50
2022-10-04T17:23:47.406Z,20.50
2022-10-04T17:26:42.258Z,20.50
2022-10-04T17:29:37.772Z,20.40
2022-10-04T17:32:24.663Z,20.20
2022-10-04T17:35:02.142Z,20.20
2022-10-04T17:37:56.684Z,20.10
2022-10-04T17:40:38.045Z,20.10
2022-10-04T17:43:28.354Z,20.10
2022-10-04T17:46:18.767Z,20.10
2022-10-04T17:49:19.535Z,20.10
2022-10-04T17:52:06.875Z,20.00
2022-10-04T17:54:55.530Z,20.10
2022-10-04T17:57:25.484Z,20.00
2022-10-04T18:00:10.346Z,19.80
2022-10-04T18:03:10.286Z,19.90
2022-10-04T18:05:44.325Z,19.70
2022-10-04T18:08:20.828Z,19.70
2022-10-04T18:10:50.422Z,19.60
2022-10-04T18:13:25.612Z,19.50
2022-10-04T18:16:00.771Z,19.40
2022-10-04T18:18:30.446Z,19.30
2022-10-04T18:21:24.188Z,19.30
2022-10-04T18:23:54.123Z,19.30
2022-10-04T18:26:21.909Z,19.20
2022-10-04T18:28:50.550Z,19.30
2022-10-04T18:31:30.724Z,19.20
2022-10-04T18:34:02.106Z,19.20
2022-10-04T18:36:33.553Z,19.10
2022-10-04T18:39:21.895Z,19.10
2022-10-04T18:42:00.345Z,19.10
2022-10-04T18:44:29.644Z,19.00
2022-10-04T18:47:00.491Z,19.00
2022-10-04T18:49:29.776Z,18.90
2022-10-04T18:52:07.355Z,18.80
2022-10-04T18:54:42.378Z,18.90
2022-10-04T18:57:53.893Z,18.90
2022-10-04T19:00:39.531Z,19.00
2022-10-04T19:03:37.309Z,18.80
2022-10-04T19:06:28.784Z,18.80
2022-10-04T19:09:17.874Z,18.70
2022-10-04T19:11:52.023Z,18.70
2022-10-04T19:14:49.996Z,18.70
2022-10-04T19:17:26.656Z,18.60
2022-10-04T19:20:18.676Z,18.50
2022-10-04T19:23:01.817Z,18.50
2022-10-04T19:25:36.469Z,18.50
2022-10-04T19:28:21.266Z,18.40
2022-10-04T19:31:07.282Z,18.50
2022-10-04T19:33:50.150Z,18.40
2022-10-04T19:36:47.281Z,18.40
2022-10-04T19:39:17.624Z,18.40
2022-10-04T19:42:13.571Z,18.40
2022-10-04T19:45:06.114Z,18.20
2022-10-04T19:47:50.155Z,18.20
2022-10-04T19:50:17.885Z,18.20
2022-10-04T19:53:00.494Z,18.10
2022-10-04T19:55:45.434Z,18.10
2022-10-04T19:58:24.068Z,18.10
2022-10-04T20:00:50.972Z,18.10
2022-10-04T20:03:18.038Z,18.00
2022-10-04T20:05:49.592Z,17.90
2022-10-04T20:08:48.281Z,18.00
2022-10-04T20:11:20.345Z,17.90
2022-10-04T20:14:16.896Z,17.80
2022-10-04T20:16:47.128Z,17.80
2022-10-04T20:19:29.515Z,17.80
2022-10-04T20:22:18.653Z,17.80
2022-10-04T20:24:45.462Z,17.70
2022-10-04T20:27:36.418Z,17.70
2022-10-04T20:30:14.336Z,17.70
2022-10-04T20:32:41.098Z,17.60
2022-10-04T20:35:14.155Z,17.60
2022-10-04T20:37:43.926Z,17.60
2022-10-04T20:40:25.544Z,17.70
2022-10-04T20:43:26.385Z,17.70
2022-10-04T20:45:55.167Z,17.70
2022-10-04T20:48:24.088Z,17.60
2022-10-04T20:50:53.539Z,17.60
2022-10-04T20:53:26.043Z,17.60
2022-10-04T20:56:14.467Z,17.60
2022-10-04T20:58:41.406Z,17.50
2022-10-04T21:01:36.085Z,17.40
2022-10-04T21:04:14.023Z,17.40
2022-10-04T21:06:54.212Z,17.40
2022-10-04T21:09:21.062Z,17.30
2022-10-04T21:11:51.084Z,17.20
2022-10-04T21:14:28.224Z,17.20
2022-10-04T21:17:30.586Z,17.20
2022-10-04T21:19:57.604Z,17.20
2022-10-04T21:22:30.273Z,17.10
2022-10-04T21:24:59.243Z,17.20
2022-10-04T21:27:43.853Z,17.10
2022-10-04T21:30:16.578Z,17.10
2022-10-04T21:32:43.488Z,17.00
2022-10-04T21:35:10.726Z,17.00
2022-10-04T21:37:37.688Z,17.00
2022-10-04T21:40:05.749Z,17.10
2022-10-04T21:42:32.747Z,17.10
2022-10-04T21:44:59.542Z,17.10
2022-10-04T21:47:26.386Z,17.10
2022-10-04T21:49:53.944Z,17.00
2022-10-04T21:52:20.855Z,17.00
2022-10-04T21:54:47.613Z,17.00
2022-10-04T21:57:14.361Z,17.00
2022-10-04T21:59:41.068Z,17.00
2022-10-04T22:02:08.415Z,17.00
2022-10-04T22:04:35.219Z,17.00
2022-10-04T22:07:01.965Z,17.00
2022-10-04T22:09:29.227Z,16.90
2022-10-04T22:11:56.096Z,17.00
2022-10-04T22:14:22.890Z,16.90
2022-10-04T22:16:50.378Z,16.90
2022-10-04T22:19:17.537Z,16.90
2022-10-04T22:21:44.259Z,16.80
2022-10-04T22:24:17.275Z,16.90
2022-10-04T22:26:44.444Z,16.80
2022-10-04T22:29:14.067Z,16.80
2022-10-04T22:31:44.097Z,16.80
2022-10-04T22:34:16.793Z,16.80
2022-10-04T22:36:44.336Z,16.80
2022-10-04T22:39:17.903Z,16.80
2022-10-04T22:41:48.774Z,16.80
2022-10-04T22:44:16.932Z,16.70
2022-10-04T22:46:47.293Z,16.70
2022-10-04T22:49:16.568Z,16.70
2022-10-04T22:51:44.987Z,16.70
2022-10-04T22:54:14.599Z,16.70
2022-10-04T22:56:41.763Z,16.60
2022-10-04T22:59:13.623Z,16.60
2022-10-04T23:01:40.738Z,16.60
2022-10-04T23:04:21.942Z,16.60
2022-10-04T23:06:49.388Z,16.50
2022-10-04T23:09:16.436Z,16.50
2022-10-04T23:11:43.814Z,16.50
2022-10-04T23:14:11.317Z,16.50
2022-10-04T23:16:38.854Z,16.50
2022-10-04T23:19:08.639Z,16.50
2022-10-04T23:21:37.636Z,16.40
2022-10-04T23:24:10.400Z,16.40
2022-10-04T23:26:40.635Z,16.50
2022-10-04T23:29:23.753Z,16.40
2022-10-04T23:31:51.620Z,16.40
2022-10-04T23:34:39.191Z,16.40
2022-10-04T23:37:18.453Z,16.40
2022-10-04T23:39:45.734Z,16.40
2022-10-04T23:42:18.103Z,16.40
2022-10-04T23:44:46.214Z,16.30
2022-10-04T23:47:16.675Z,16.30
2022-10-04T23:49:45.127Z,16.30
2022-10-04T23:52:22.703Z,16.30
2022-10-04T23:54:50.036Z,16.30
2022-10-04T23:57:21.932Z,16.30
2022-10-04T23:59:49.171Z,16.20
